Thunder radar more information blitzortung!


Radar de pluja more information rain snow radar


Visita la nostra xarxa de llocs de meteo:

Template documentation
and downloads

And another site



No particular awareness of the weather is required.    There are no Weather-warnings

Pagina Historial Weather Underground text

Diari Resum Agost 29, 2017 Unitats:  Tant    Imperial   Mètric
« Previous Dia
SegĂźent Dia »
Diari Setmana Mensual Anual Personalitzada
  Maxima: Minima: Media:
Temperatura: 91.8 °F /  33.2 °C 70 °F /  21.1 °C 80.2 °F /  26.8 °C
Punt de rosada: 66.6 °F /  19.2 °C 54 °F /  12.2 °C 61.3 °F /  16.3 °C
Humitat: 76 % 35 % 54 %
Wind Speed: 13.8 mph /  22.2 km/h - 3.8 mph /  6.1 km/h
RĂ fegues de vent: 17 mph /  27.4 km/h - -
Vent:- - SW
Pression baro: 30 in /  1015.8 hPa 29.8 in /  1010.7 hPa -
Precipitacions: 0 in /  0.0 mm    
Historical Graphs
 
 
Dades de taula per Agost 29, 2017
Temps Temperatura Punt de rosada Pression baro Vent Wind Speed RĂ fegues de vent Humitat Rainfall Rate (Hourly)
00:03 77.9 °F /  25.5 °C 64.8 °F /  18.2 °C 29.9 in /  1012.8 hPa SW 3.5 mph /  5.6 km/h 3.5 mph /  5.6 km/h 64 % 0 in /  0.0 mm
00:05 73.8 °F /  23.2 °C 65.3 °F /  18.5 °C 29.9 in /  1011.7 hPa WSW 1 mph /  1.6 km/h 3 mph /  4.8 km/h 75 % 0 in /  0.0 mm
00:15 73.8 °F /  23.2 °C 64.9 °F /  18.3 °C 29.9 in /  1011.7 hPa WSW 2 mph /  3.2 km/h 2 mph /  3.2 km/h 74 % 0 in /  0.0 mm
00:25 74.1 °F /  23.4 °C 64.9 °F /  18.3 °C 29.9 in /  1011.7 hPa WSW 2 mph /  3.2 km/h 3 mph /  4.8 km/h 73 % 0 in /  0.0 mm
00:35 74.5 °F /  23.6 °C 65.3 °F /  18.5 °C 29.9 in /  1011.7 hPa West 2 mph /  3.2 km/h 4 mph /  6.4 km/h 73 % 0 in /  0.0 mm
00:45 74.5 °F /  23.6 °C 64.9 °F /  18.3 °C 29.8 in /  1010.7 hPa West 5 mph /  8.0 km/h 5 mph /  8.0 km/h 72 % 0 in /  0.0 mm
00:55 74.7 °F /  23.7 °C 64.9 °F /  18.3 °C 29.8 in /  1010.7 hPa West 3 mph /  4.8 km/h 4 mph /  6.4 km/h 72 % 0 in /  0.0 mm
01:05 74.5 °F /  23.6 °C 64.9 °F /  18.3 °C 29.8 in /  1010.7 hPa WSW 2 mph /  3.2 km/h 3 mph /  4.8 km/h 72 % 0 in /  0.0 mm
01:25 74.3 °F /  23.5 °C 64.8 °F /  18.2 °C 29.8 in /  1010.7 hPa WSW 1 mph /  1.6 km/h 3 mph /  4.8 km/h 72 % 0 in /  0.0 mm
01:35 73.9 °F /  23.3 °C 64.2 °F /  17.9 °C 29.8 in /  1010.7 hPa Calm   2 mph /  3.2 km/h 72 % 0 in /  0.0 mm
01:45 73.8 °F /  23.2 °C 64.2 °F /  17.9 °C 29.8 in /  1010.7 hPa WSW 1 mph /  1.6 km/h 2 mph /  3.2 km/h 72 % 0 in /  0.0 mm
01:55 73.6 °F /  23.1 °C 64 °F /  17.8 °C 29.8 in /  1010.7 hPa Calm   1 mph /  1.6 km/h 72 % 0 in /  0.0 mm
02:05 73.2 °F /  22.9 °C 63.7 °F /  17.6 °C 29.9 in /  1011.7 hPa WSW 1 mph /  1.6 km/h 2 mph /  3.2 km/h 72 % 0 in /  0.0 mm
02:15 72.9 °F /  22.7 °C 63.7 °F /  17.6 °C 29.8 in /  1010.7 hPa SW 1 mph /  1.6 km/h 2 mph /  3.2 km/h 73 % 0 in /  0.0 mm
02:25 72.7 °F /  22.6 °C 63.5 °F /  17.5 °C 29.8 in /  1010.7 hPa SW 1 mph /  1.6 km/h 2 mph /  3.2 km/h 73 % 0 in /  0.0 mm
02:35 72.5 °F /  22.5 °C 63.3 °F /  17.4 °C 29.9 in /  1011.7 hPa Calm   2 mph /  3.2 km/h 73 % 0 in /  0.0 mm
02:45 72.3 °F /  22.4 °C 63.1 °F /  17.3 °C 29.9 in /  1011.7 hPa Calm   2 mph /  3.2 km/h 73 % 0 in /  0.0 mm
02:55 72 °F /  22.2 °C 62.8 °F /  17.1 °C 29.9 in /  1011.7 hPa SW 2 mph /  3.2 km/h 2 mph /  3.2 km/h 73 % 0 in /  0.0 mm
03:05 71.8 °F /  22.1 °C 63 °F /  17.2 °C 29.9 in /  1011.7 hPa SW 1 mph /  1.6 km/h 3 mph /  4.8 km/h 74 % 0 in /  0.0 mm
03:15 71.4 °F /  21.9 °C 63.1 °F /  17.3 °C 29.9 in /  1011.7 hPa SW 1 mph /  1.6 km/h 3 mph /  4.8 km/h 75 % 0 in /  0.0 mm
03:25 71.1 °F /  21.7 °C 62.8 °F /  17.1 °C 29.9 in /  1011.7 hPa WSW 1 mph /  1.6 km/h 2 mph /  3.2 km/h 75 % 0 in /  0.0 mm
03:35 70.9 °F /  21.6 °C 62.6 °F /  17.0 °C 29.9 in /  1011.7 hPa WSW 1 mph /  1.6 km/h 2 mph /  3.2 km/h 75 % 0 in /  0.0 mm
03:45 71.1 °F /  21.7 °C 62.8 °F /  17.1 °C 29.9 in /  1011.7 hPa SW 1 mph /  1.6 km/h 2 mph /  3.2 km/h 75 % 0 in /  0.0 mm
03:55 71.4 °F /  21.9 °C 63.5 °F /  17.5 °C 29.9 in /  1011.7 hPa SW 1 mph /  1.6 km/h 2 mph /  3.2 km/h 76 % 0 in /  0.0 mm
04:05 72 °F /  22.2 °C 63.1 °F /  17.3 °C 29.9 in /  1011.7 hPa Calm   3 mph /  4.8 km/h 74 % 0 in /  0.0 mm
04:15 72.1 °F /  22.3 °C 63.3 °F /  17.4 °C 29.9 in /  1011.7 hPa WNW 1 mph /  1.6 km/h 2 mph /  3.2 km/h 74 % 0 in /  0.0 mm
04:25 72.3 °F /  22.4 °C 63.7 °F /  17.6 °C 29.9 in /  1011.7 hPa SW 1 mph /  1.6 km/h 2 mph /  3.2 km/h 74 % 0 in /  0.0 mm
04:35 73 °F /  22.8 °C 63.9 °F /  17.7 °C 29.9 in /  1011.7 hPa SW 1 mph /  1.6 km/h 2 mph /  3.2 km/h 73 % 0 in /  0.0 mm
04:45 74.1 °F /  23.4 °C 64.6 °F /  18.1 °C 29.9 in /  1011.7 hPa SW 1 mph /  1.6 km/h 2 mph /  3.2 km/h 72 % 0 in /  0.0 mm
04:55 74.8 °F /  23.8 °C 64.8 °F /  18.2 °C 29.9 in /  1011.7 hPa SW 1 mph /  1.6 km/h 2 mph /  3.2 km/h 71 % 0 in /  0.0 mm
09:58 78.8 °F /  26.0 °C 65.1 °F /  18.4 °C 29.9 in /  1011.7 hPa SSE 2.9 mph /  4.7 km/h 2.9 mph /  4.7 km/h 63 % 0 in /  0.0 mm
09:59 79.2 °F /  26.2 °C 65.5 °F /  18.6 °C 29.9 in /  1011.7 hPa SSE 3.5 mph /  5.6 km/h 3.5 mph /  5.6 km/h 63 % 0 in /  0.0 mm
10:01 79.3 °F /  26.3 °C 65.7 °F /  18.7 °C 29.9 in /  1011.7 hPa SSE 2 mph /  3.2 km/h 2 mph /  3.2 km/h 63 % 0 in /  0.0 mm
10:06 79.7 °F /  26.5 °C 65.5 °F /  18.6 °C 29.9 in /  1011.7 hPa ESE 3.5 mph /  5.6 km/h 3.5 mph /  5.6 km/h 62 % 0 in /  0.0 mm
10:11 80.8 °F /  27.1 °C 66 °F /  18.9 °C 29.9 in /  1011.7 hPa SSE 2.3 mph /  3.7 km/h 2.3 mph /  3.7 km/h 61 % 0 in /  0.0 mm
10:21 80.2 °F /  26.8 °C 65.7 °F /  18.7 °C 29.9 in /  1011.7 hPa ENE 2.3 mph /  3.7 km/h 2.3 mph /  3.7 km/h 61 % 0 in /  0.0 mm
10:26 79.3 °F /  26.3 °C 64.8 °F /  18.2 °C 29.9 in /  1011.7 hPa East 3.5 mph /  5.6 km/h 3.5 mph /  5.6 km/h 61 % 0 in /  0.0 mm
10:31 79.2 °F /  26.2 °C 64.6 °F /  18.1 °C 29.9 in /  1011.7 hPa NE 2.3 mph /  3.7 km/h 2.3 mph /  3.7 km/h 61 % 0 in /  0.0 mm
10:36 79.3 °F /  26.3 °C 64.8 °F /  18.2 °C 29.9 in /  1011.7 hPa NE 2.3 mph /  3.7 km/h 2.3 mph /  3.7 km/h 61 % 0 in /  0.0 mm
10:41 79.9 °F /  26.6 °C 65.1 °F /  18.4 °C 29.9 in /  1011.7 hPa SW 2 mph /  3.2 km/h 2 mph /  3.2 km/h 61 % 0 in /  0.0 mm
10:46 80.4 °F /  26.9 °C 65.7 °F /  18.7 °C 29.9 in /  1011.7 hPa WNW 2.3 mph /  3.7 km/h 2.3 mph /  3.7 km/h 61 % 0 in /  0.0 mm
10:51 80.8 °F /  27.1 °C 65.7 °F /  18.7 °C 29.9 in /  1011.7 hPa ENE 3.8 mph /  6.1 km/h 3.8 mph /  6.1 km/h 60 % 0 in /  0.0 mm
10:56 81.7 °F /  27.6 °C 66 °F /  18.9 °C 29.9 in /  1011.7 hPa NNE 2.3 mph /  3.7 km/h 2.3 mph /  3.7 km/h 59 % 0 in /  0.0 mm
11:01 82 °F /  27.8 °C 65.3 °F /  18.5 °C 29.9 in /  1011.7 hPa East 2.4 mph /  3.9 km/h 2.4 mph /  3.9 km/h 57 % 0 in /  0.0 mm
11:06 82.2 °F /  27.9 °C 66 °F /  18.9 °C 29.9 in /  1011.7 hPa ESE 1.2 mph /  1.9 km/h 1.2 mph /  1.9 km/h 58 % 0 in /  0.0 mm
11:11 82.6 °F /  28.1 °C 65.8 °F /  18.8 °C 29.9 in /  1011.7 hPa ENE 4.6 mph /  7.4 km/h 4.6 mph /  7.4 km/h 57 % 0 in /  0.0 mm
11:16 82.4 °F /  28.0 °C 65.1 °F /  18.4 °C 29.9 in /  1011.7 hPa ESE 2.3 mph /  3.7 km/h 2.3 mph /  3.7 km/h 56 % 0 in /  0.0 mm
11:21 83.3 °F /  28.5 °C 66.6 °F /  19.2 °C 29.9 in /  1011.7 hPa SW 1.2 mph /  1.9 km/h 1.2 mph /  1.9 km/h 57 % 0 in /  0.0 mm
11:26 84.6 °F /  29.2 °C 66.6 °F /  19.2 °C 29.9 in /  1011.7 hPa West 3.5 mph /  5.6 km/h 3.5 mph /  5.6 km/h 55 % 0 in /  0.0 mm
11:31 83.7 °F /  28.7 °C 66.4 °F /  19.1 °C 29.9 in /  1011.7 hPa SW 4.6 mph /  7.4 km/h 4.6 mph /  7.4 km/h 56 % 0 in /  0.0 mm
11:36 84.2 °F /  29.0 °C 65.1 °F /  18.4 °C 29.9 in /  1011.7 hPa SE 2.3 mph /  3.7 km/h 2.3 mph /  3.7 km/h 53 % 0 in /  0.0 mm
11:41 85.6 °F /  29.8 °C 66 °F /  18.9 °C 29.9 in /  1011.7 hPa SW 3.6 mph /  5.8 km/h 3.6 mph /  5.8 km/h 52 % 0 in /  0.0 mm
11:42 85.8 °F /  29.9 °C 66.2 °F /  19.0 °C 29.9 in /  1011.7 hPa South 3.5 mph /  5.6 km/h 3.5 mph /  5.6 km/h 52 % 0 in /  0.0 mm
11:47 86.5 °F /  30.3 °C 66.4 °F /  19.1 °C 29.9 in /  1011.7 hPa SSW 2.3 mph /  3.7 km/h 2.3 mph /  3.7 km/h 51 % 0 in /  0.0 mm
11:52 86 °F /  30.0 °C 65.8 °F /  18.8 °C 29.9 in /  1011.7 hPa South 4.6 mph /  7.4 km/h 4.6 mph /  7.4 km/h 51 % 0 in /  0.0 mm
12:02 86.2 °F /  30.1 °C 65.5 °F /  18.6 °C 29.9 in /  1012.8 hPa WSW 3.5 mph /  5.6 km/h 3.5 mph /  5.6 km/h 50 % 0 in /  0.0 mm
12:07 86.2 °F /  30.1 °C 65.5 °F /  18.6 °C 29.9 in /  1012.8 hPa SSW 3.5 mph /  5.6 km/h 3.5 mph /  5.6 km/h 50 % 0 in /  0.0 mm
12:12 86.4 °F /  30.2 °C 64.9 °F /  18.3 °C 29.9 in /  1011.7 hPa NW 1.6 mph /  2.6 km/h 1.6 mph /  2.6 km/h 49 % 0 in /  0.0 mm
12:17 86.2 °F /  30.1 °C 64.8 °F /  18.2 °C 29.9 in /  1011.7 hPa West 4.9 mph /  7.9 km/h 4.9 mph /  7.9 km/h 49 % 0 in /  0.0 mm
12:22 86 °F /  30.0 °C 64 °F /  17.8 °C 29.9 in /  1011.7 hPa South 2.3 mph /  3.7 km/h 2.3 mph /  3.7 km/h 48 % 0 in /  0.0 mm
12:27 86.5 °F /  30.3 °C 64.6 °F /  18.1 °C 29.9 in /  1011.7 hPa SW 2.3 mph /  3.7 km/h 2.3 mph /  3.7 km/h 48 % 0 in /  0.0 mm
12:32 86.9 °F /  30.5 °C 64.8 °F /  18.2 °C 29.9 in /  1011.7 hPa West 2.3 mph /  3.7 km/h 2.3 mph /  3.7 km/h 48 % 0 in /  0.0 mm
12:37 87.6 °F /  30.9 °C 65.5 °F /  18.6 °C 29.9 in /  1011.7 hPa SW 3.5 mph /  5.6 km/h 3.5 mph /  5.6 km/h 48 % 0 in /  0.0 mm
12:38 87.8 °F /  31.0 °C 65.1 °F /  18.4 °C 29.9 in /  1011.7 hPa South 1.6 mph /  2.6 km/h 1.6 mph /  2.6 km/h 47 % 0 in /  0.0 mm
12:43 87.6 °F /  30.9 °C 65.5 °F /  18.6 °C 29.9 in /  1012.8 hPa WSW 3.5 mph /  5.6 km/h 3.5 mph /  5.6 km/h 48 % 0 in /  0.0 mm
12:48 88 °F /  31.1 °C 64.6 °F /  18.1 °C 29.9 in /  1012.8 hPa SSW 2.3 mph /  3.7 km/h 2.3 mph /  3.7 km/h 46 % 0 in /  0.0 mm
12:53 87.8 °F /  31.0 °C 65.1 °F /  18.4 °C 29.9 in /  1012.8 hPa WSW 4.7 mph /  7.6 km/h 4.7 mph /  7.6 km/h 47 % 0 in /  0.0 mm
12:58 87.6 °F /  30.9 °C 64.9 °F /  18.3 °C 29.9 in /  1011.7 hPa WSW 4.6 mph /  7.4 km/h 4.6 mph /  7.4 km/h 47 % 0 in /  0.0 mm
13:03 88.2 °F /  31.2 °C 64.8 °F /  18.2 °C 29.9 in /  1011.7 hPa SW 3.5 mph /  5.6 km/h 3.5 mph /  5.6 km/h 46 % 0 in /  0.0 mm
13:08 88.3 °F /  31.3 °C 64.2 °F /  17.9 °C 29.9 in /  1011.7 hPa ESE 2.3 mph /  3.7 km/h 2.6 mph /  4.2 km/h 45 % 0 in /  0.0 mm
13:13 90 °F /  32.2 °C 65.8 °F /  18.8 °C 29.9 in /  1011.7 hPa South 3.5 mph /  5.6 km/h 3.5 mph /  5.6 km/h 45 % 0 in /  0.0 mm
13:18 89.6 °F /  32.0 °C 64.8 °F /  18.2 °C 29.9 in /  1011.7 hPa SSE 4.6 mph /  7.4 km/h 4.6 mph /  7.4 km/h 44 % 0 in /  0.0 mm
13:23 90 °F /  32.2 °C 65.8 °F /  18.8 °C 29.9 in /  1011.7 hPa SW 6 mph /  9.7 km/h 6 mph /  9.7 km/h 45 % 0 in /  0.0 mm
13:28 90.1 °F /  32.3 °C 65.3 °F /  18.5 °C 29.8 in /  1010.7 hPa SSW 3.5 mph /  5.6 km/h 3.5 mph /  5.6 km/h 44 % 0 in /  0.0 mm
13:33 90.3 °F /  32.4 °C 65.5 °F /  18.6 °C 29.8 in /  1010.7 hPa WSW 3.8 mph /  6.1 km/h 3.8 mph /  6.1 km/h 44 % 0 in /  0.0 mm
13:38 90 °F /  32.2 °C 65.1 °F /  18.4 °C 29.8 in /  1010.7 hPa WSW 5.8 mph /  9.3 km/h 5.8 mph /  9.3 km/h 44 % 0 in /  0.0 mm
13:43 89.1 °F /  31.7 °C 63.7 °F /  17.6 °C 29.8 in /  1010.7 hPa South 5.8 mph /  9.3 km/h 5.8 mph /  9.3 km/h 43 % 0 in /  0.0 mm
13:48 89.8 °F /  32.1 °C 64.2 °F /  17.9 °C 29.8 in /  1010.7 hPa South 9.2 mph /  14.8 km/h 9.2 mph /  14.8 km/h 43 % 0 in /  0.0 mm
13:53 91.2 °F /  32.9 °C 65.7 °F /  18.7 °C 29.8 in /  1010.7 hPa South 5.9 mph /  9.5 km/h 5.9 mph /  9.5 km/h 43 % 0 in /  0.0 mm
13:58 91.8 °F /  33.2 °C 64 °F /  17.8 °C 29.9 in /  1011.7 hPa SE 5.8 mph /  9.3 km/h 5.8 mph /  9.3 km/h 40 % 0 in /  0.0 mm
14:03 90.9 °F /  32.7 °C 62.4 °F /  16.9 °C 29.9 in /  1011.7 hPa SW 5.8 mph /  9.3 km/h 5.9 mph /  9.5 km/h 39 % 0 in /  0.0 mm
14:08 91 °F /  32.8 °C 62.6 °F /  17.0 °C 29.9 in /  1011.7 hPa SW 8.1 mph /  13.0 km/h 8.1 mph /  13.0 km/h 39 % 0 in /  0.0 mm
14:13 90.5 °F /  32.5 °C 61.3 °F /  16.3 °C 29.9 in /  1011.7 hPa West 11.5 mph /  18.5 km/h 11.5 mph /  18.5 km/h 38 % 0 in /  0.0 mm
14:18 89.4 °F /  31.9 °C 59.7 °F /  15.4 °C 29.9 in /  1011.7 hPa WSW 13.8 mph /  22.2 km/h 13.8 mph /  22.2 km/h 37 % 0 in /  0.0 mm
14:23 88.9 °F /  31.6 °C 59.2 °F /  15.1 °C 29.9 in /  1011.7 hPa SSW 9.2 mph /  14.8 km/h 9.2 mph /  14.8 km/h 37 % 0 in /  0.0 mm
14:28 88.9 °F /  31.6 °C 59.2 °F /  15.1 °C 29.9 in /  1011.7 hPa South 3.5 mph /  5.6 km/h 3.5 mph /  5.6 km/h 37 % 0 in /  0.0 mm
14:33 89.1 °F /  31.7 °C 60.1 °F /  15.6 °C 29.9 in /  1011.7 hPa SSW 4.6 mph /  7.4 km/h 4.6 mph /  7.4 km/h 38 % 0 in /  0.0 mm
14:38 89.2 °F /  31.8 °C 59.5 °F /  15.3 °C 29.9 in /  1011.7 hPa SSW 4 mph /  6.4 km/h 4 mph /  6.4 km/h 37 % 0 in /  0.0 mm
14:43 89.1 °F /  31.7 °C 59.4 °F /  15.2 °C 29.9 in /  1011.7 hPa SW 6.9 mph /  11.1 km/h 6.9 mph /  11.1 km/h 37 % 0 in /  0.0 mm
14:48 88.9 °F /  31.6 °C 59.2 °F /  15.1 °C 29.9 in /  1011.7 hPa ESE 6.4 mph /  10.3 km/h 6.4 mph /  10.3 km/h 37 % 0 in /  0.0 mm
14:53 88.9 °F /  31.6 °C 59.2 °F /  15.1 °C 29.9 in /  1011.7 hPa SW 4.6 mph /  7.4 km/h 4.6 mph /  7.4 km/h 37 % 0 in /  0.0 mm
14:58 88.3 °F /  31.3 °C 58.8 °F /  14.9 °C 29.9 in /  1012.8 hPa SSW 9.2 mph /  14.8 km/h 9.2 mph /  14.8 km/h 37 % 0 in /  0.0 mm
15:03 88 °F /  31.1 °C 57.7 °F /  14.3 °C 29.9 in /  1012.8 hPa WSW 8.1 mph /  13.0 km/h 8.1 mph /  13.0 km/h 36 % 0 in /  0.0 mm
15:08 88.2 °F /  31.2 °C 57.7 °F /  14.3 °C 29.9 in /  1012.8 hPa SSW 5.8 mph /  9.3 km/h 5.8 mph /  9.3 km/h 36 % 0 in /  0.0 mm
15:13 88 °F /  31.1 °C 57.7 °F /  14.3 °C 29.9 in /  1012.8 hPa SW 6.4 mph /  10.3 km/h 6.4 mph /  10.3 km/h 36 % 0 in /  0.0 mm
15:18 88.2 °F /  31.2 °C 57.7 °F /  14.3 °C 29.9 in /  1012.8 hPa SSW 6.9 mph /  11.1 km/h 6.9 mph /  11.1 km/h 36 % 0 in /  0.0 mm
15:23 88.2 °F /  31.2 °C 57.7 °F /  14.3 °C 29.9 in /  1012.8 hPa SW 8.1 mph /  13.0 km/h 8.1 mph /  13.0 km/h 36 % 0 in /  0.0 mm
15:28 88.3 °F /  31.3 °C 57.2 °F /  14.0 °C 29.9 in /  1012.8 hPa WSW 6.9 mph /  11.1 km/h 6.9 mph /  11.1 km/h 35 % 0 in /  0.0 mm
15:33 88 °F /  31.1 °C 57.7 °F /  14.3 °C 29.9 in /  1012.8 hPa SSW 12.7 mph /  20.4 km/h 12.7 mph /  20.4 km/h 36 % 0 in /  0.0 mm
15:38 87.6 °F /  30.9 °C 58.8 °F /  14.9 °C 29.9 in /  1012.8 hPa SSW 5.9 mph /  9.5 km/h 5.9 mph /  9.5 km/h 38 % 0 in /  0.0 mm
15:43 87.3 °F /  30.7 °C 59.4 °F /  15.2 °C 29.9 in /  1012.8 hPa South 6.9 mph /  11.1 km/h 6.9 mph /  11.1 km/h 39 % 0 in /  0.0 mm
15:48 86.9 °F /  30.5 °C 59.7 °F /  15.4 °C 29.9 in /  1012.8 hPa SSW 8.1 mph /  13.0 km/h 8.1 mph /  13.0 km/h 40 % 0 in /  0.0 mm
15:53 87.1 °F /  30.6 °C 59.7 °F /  15.4 °C 29.9 in /  1012.8 hPa SSW 6.9 mph /  11.1 km/h 6.9 mph /  11.1 km/h 40 % 0 in /  0.0 mm
15:58 86.7 °F /  30.4 °C 59.5 °F /  15.3 °C 29.9 in /  1012.8 hPa WSW 5.8 mph /  9.3 km/h 5.8 mph /  9.3 km/h 40 % 0 in /  0.0 mm
16:03 86.9 °F /  30.5 °C 60.4 °F /  15.8 °C 29.9 in /  1012.8 hPa WSW 6.2 mph /  10.0 km/h 6.2 mph /  10.0 km/h 41 % 0 in /  0.0 mm
16:08 86.4 °F /  30.2 °C 59.2 °F /  15.1 °C 29.9 in /  1012.8 hPa SSW 8.1 mph /  13.0 km/h 8.1 mph /  13.0 km/h 40 % 0 in /  0.0 mm
16:13 86 °F /  30.0 °C 58.8 °F /  14.9 °C 29.9 in /  1012.8 hPa WSW 6.9 mph /  11.1 km/h 6.9 mph /  11.1 km/h 40 % 0 in /  0.0 mm
16:18 85.6 °F /  29.8 °C 59.2 °F /  15.1 °C 29.9 in /  1012.8 hPa WSW 8.1 mph /  13.0 km/h 8.1 mph /  13.0 km/h 41 % 0 in /  0.0 mm
16:23 85.5 °F /  29.7 °C 59.2 °F /  15.1 °C 29.9 in /  1012.8 hPa SSE 6.4 mph /  10.3 km/h 6.4 mph /  10.3 km/h 41 % 0 in /  0.0 mm
16:28 85.3 °F /  29.6 °C 59.5 °F /  15.3 °C 29.9 in /  1011.7 hPa SSW 5.8 mph /  9.3 km/h 5.8 mph /  9.3 km/h 42 % 0 in /  0.0 mm
16:33 85.1 °F /  29.5 °C 59.4 °F /  15.2 °C 29.9 in /  1011.7 hPa SW 4.6 mph /  7.4 km/h 4.6 mph /  7.4 km/h 42 % 0 in /  0.0 mm
16:34 85.1 °F /  29.5 °C 59.4 °F /  15.2 °C 29.9 in /  1011.7 hPa WSW 6.4 mph /  10.3 km/h 6.4 mph /  10.3 km/h 42 % 0 in /  0.0 mm
16:39 84.7 °F /  29.3 °C 59.2 °F /  15.1 °C 29.9 in /  1011.7 hPa WSW 10.4 mph /  16.7 km/h 10.4 mph /  16.7 km/h 42 % 0 in /  0.0 mm
16:44 84.6 °F /  29.2 °C 58.8 °F /  14.9 °C 29.9 in /  1011.7 hPa WSW 4.6 mph /  7.4 km/h 4.6 mph /  7.4 km/h 42 % 0 in /  0.0 mm
16:49 84.6 °F /  29.2 °C 58.8 °F /  14.9 °C 29.9 in /  1011.7 hPa SW 5.9 mph /  9.5 km/h 5.9 mph /  9.5 km/h 42 % 0 in /  0.0 mm
16:54 84.2 °F /  29.0 °C 58.6 °F /  14.8 °C 29.9 in /  1011.7 hPa WSW 10.4 mph /  16.7 km/h 10.4 mph /  16.7 km/h 42 % 0 in /  0.0 mm
16:59 84 °F /  28.9 °C 59.2 °F /  15.1 °C 29.9 in /  1011.7 hPa WSW 5.8 mph /  9.3 km/h 5.8 mph /  9.3 km/h 43 % 0 in /  0.0 mm
17:04 84 °F /  28.9 °C 59.2 °F /  15.1 °C 29.9 in /  1011.7 hPa South 5.8 mph /  9.3 km/h 5.8 mph /  9.3 km/h 43 % 0 in /  0.0 mm
17:09 84 °F /  28.9 °C 59.7 °F /  15.4 °C 29.9 in /  1011.7 hPa SSW 5.8 mph /  9.3 km/h 5.9 mph /  9.5 km/h 44 % 0 in /  0.0 mm
17:14 83.8 °F /  28.8 °C 59.5 °F /  15.3 °C 29.9 in /  1011.7 hPa West 5.8 mph /  9.3 km/h 5.8 mph /  9.3 km/h 44 % 0 in /  0.0 mm
17:19 83.7 °F /  28.7 °C 59.4 °F /  15.2 °C 29.9 in /  1011.7 hPa SSW 6.9 mph /  11.1 km/h 6.9 mph /  11.1 km/h 44 % 0 in /  0.0 mm
17:24 83.3 °F /  28.5 °C 59.7 °F /  15.4 °C 29.9 in /  1012.8 hPa WSW 10.4 mph /  16.7 km/h 10.4 mph /  16.7 km/h 45 % 0 in /  0.0 mm
17:29 82.6 °F /  28.1 °C 59.7 °F /  15.4 °C 29.9 in /  1012.8 hPa SW 12.7 mph /  20.4 km/h 12.7 mph /  20.4 km/h 46 % 0 in /  0.0 mm
17:34 81.7 °F /  27.6 °C 60.6 °F /  15.9 °C 29.9 in /  1012.8 hPa SW 10.9 mph /  17.5 km/h 10.9 mph /  17.5 km/h 49 % 0 in /  0.0 mm
17:39 81 °F /  27.2 °C 61.2 °F /  16.2 °C 29.9 in /  1013.8 hPa SW 10.4 mph /  16.7 km/h 10.4 mph /  16.7 km/h 51 % 0 in /  0.0 mm
17:44 79.5 °F /  26.4 °C 61.9 °F /  16.6 °C 29.9 in /  1013.8 hPa South 6.9 mph /  11.1 km/h 6.9 mph /  11.1 km/h 55 % 0 in /  0.0 mm
17:49 78.4 °F /  25.8 °C 62.4 °F /  16.9 °C 29.9 in /  1013.8 hPa SW 10.4 mph /  16.7 km/h 10.4 mph /  16.7 km/h 58 % 0 in /  0.0 mm
17:54 77.9 °F /  25.5 °C 63 °F /  17.2 °C 29.9 in /  1013.8 hPa SW 7.8 mph /  12.6 km/h 7.8 mph /  12.6 km/h 60 % 0 in /  0.0 mm
17:59 77.7 °F /  25.4 °C 63.7 °F /  17.6 °C 29.9 in /  1013.8 hPa WSW 6.9 mph /  11.1 km/h 6.9 mph /  11.1 km/h 62 % 0 in /  0.0 mm
18:04 77.7 °F /  25.4 °C 63.7 °F /  17.6 °C 29.9 in /  1013.8 hPa SW 9.2 mph /  14.8 km/h 9.2 mph /  14.8 km/h 62 % 0 in /  0.0 mm
18:09 77.4 °F /  25.2 °C 64.2 °F /  17.9 °C 29.9 in /  1013.8 hPa South 8.1 mph /  13.0 km/h 8.1 mph /  13.0 km/h 64 % 0 in /  0.0 mm
18:14 77 °F /  25.0 °C 63.3 °F /  17.4 °C 29.9 in /  1013.8 hPa SW 5.6 mph /  9.0 km/h 5.6 mph /  9.0 km/h 63 % 0 in /  0.0 mm
18:19 77 °F /  25.0 °C 63.9 °F /  17.7 °C 29.9 in /  1013.8 hPa SW 5.8 mph /  9.3 km/h 5.8 mph /  9.3 km/h 64 % 0 in /  0.0 mm
18:24 77.2 °F /  25.1 °C 63.7 °F /  17.6 °C 29.9 in /  1013.8 hPa West 5.8 mph /  9.3 km/h 5.8 mph /  9.3 km/h 63 % 0 in /  0.0 mm
18:29 77.2 °F /  25.1 °C 63.7 °F /  17.6 °C 29.9 in /  1013.8 hPa SW 3.5 mph /  5.6 km/h 3.5 mph /  5.6 km/h 63 % 0 in /  0.0 mm
18:34 77.4 °F /  25.2 °C 63.9 °F /  17.7 °C 29.9 in /  1013.8 hPa SW 4.6 mph /  7.4 km/h 4.6 mph /  7.4 km/h 63 % 0 in /  0.0 mm
18:39 77.7 °F /  25.4 °C 63.7 °F /  17.6 °C 29.9 in /  1012.8 hPa West 4.6 mph /  7.4 km/h 4.6 mph /  7.4 km/h 62 % 0 in /  0.0 mm
18:44 77.7 °F /  25.4 °C 63.1 °F /  17.3 °C 29.9 in /  1012.8 hPa WSW 4.6 mph /  7.4 km/h 4.6 mph /  7.4 km/h 61 % 0 in /  0.0 mm
18:49 77.9 °F /  25.5 °C 63 °F /  17.2 °C 29.9 in /  1012.8 hPa West 3.5 mph /  5.6 km/h 3.5 mph /  5.6 km/h 60 % 0 in /  0.0 mm
18:54 78.1 °F /  25.6 °C 63.1 °F /  17.3 °C 29.9 in /  1012.8 hPa WSW 2 mph /  3.2 km/h 2 mph /  3.2 km/h 60 % 0 in /  0.0 mm
18:59 78.1 °F /  25.6 °C 63.1 °F /  17.3 °C 29.9 in /  1012.8 hPa SW 2.3 mph /  3.7 km/h 2.3 mph /  3.7 km/h 60 % 0 in /  0.0 mm
19:04 78.1 °F /  25.6 °C 62.1 °F /  16.7 °C 29.9 in /  1012.8 hPa WNW 3.5 mph /  5.6 km/h 3.5 mph /  5.6 km/h 58 % 0 in /  0.0 mm
19:09 78.3 °F /  25.7 °C 61.9 °F /  16.6 °C 29.9 in /  1012.8 hPa West 2.4 mph /  3.9 km/h 2.4 mph /  3.9 km/h 57 % 0 in /  0.0 mm
19:14 78.4 °F /  25.8 °C 61.3 °F /  16.3 °C 29.9 in /  1012.8 hPa West 2.3 mph /  3.7 km/h 2.3 mph /  3.7 km/h 56 % 0 in /  0.0 mm
19:15 78.4 °F /  25.8 °C 61.3 °F /  16.3 °C 29.9 in /  1012.8 hPa Calm   2 mph /  3.2 km/h 56 % 0 in /  0.0 mm
19:20 78.8 °F /  26.0 °C 61.3 °F /  16.3 °C 29.9 in /  1012.8 hPa West 1.2 mph /  1.9 km/h   55 % 0 in /  0.0 mm
19:25 78.8 °F /  26.0 °C 61.3 °F /  16.3 °C 29.9 in /  1011.7 hPa SW 3.6 mph /  5.8 km/h 3.6 mph /  5.8 km/h 55 % 0 in /  0.0 mm
19:30 78.6 °F /  25.9 °C 61.2 °F /  16.2 °C 29.9 in /  1011.7 hPa Calm   3 mph /  4.8 km/h 55 % 0 in /  0.0 mm
19:35 78.6 °F /  25.9 °C 60.6 °F /  15.9 °C 29.9 in /  1011.7 hPa SW 1 mph /  1.6 km/h 2 mph /  3.2 km/h 54 % 0 in /  0.0 mm
19:40 78.6 °F /  25.9 °C 60.6 °F /  15.9 °C 29.9 in /  1011.7 hPa SW 2 mph /  3.2 km/h 3 mph /  4.8 km/h 54 % 0 in /  0.0 mm
19:45 78.4 °F /  25.8 °C 60.4 °F /  15.8 °C 29.9 in /  1011.7 hPa WSW 2.3 mph /  3.7 km/h 2.3 mph /  3.7 km/h 54 % 0 in /  0.0 mm
19:50 78.4 °F /  25.8 °C 60.4 °F /  15.8 °C 29.9 in /  1011.7 hPa Calm     54 % 0 in /  0.0 mm
19:55 78.3 °F /  25.7 °C 60.3 °F /  15.7 °C 29.9 in /  1012.8 hPa Calm     54 % 0 in /  0.0 mm
20:00 78.3 °F /  25.7 °C 60.3 °F /  15.7 °C 29.9 in /  1012.8 hPa Calm     54 % 0 in /  0.0 mm
20:05 78.1 °F /  25.6 °C 60.1 °F /  15.6 °C 29.9 in /  1012.8 hPa NNE 1.4 mph /  2.3 km/h   54 % 0 in /  0.0 mm
20:10 78.1 °F /  25.6 °C 59.5 °F /  15.3 °C 29.9 in /  1011.7 hPa South 1.6 mph /  2.6 km/h   53 % 0 in /  0.0 mm
20:15 78.1 °F /  25.6 °C 59.5 °F /  15.3 °C 29.9 in /  1011.7 hPa South 1.2 mph /  1.9 km/h 1.4 mph /  2.3 km/h 53 % 0 in /  0.0 mm
20:20 77.9 °F /  25.5 °C 59.9 °F /  15.5 °C 29.9 in /  1011.7 hPa Calm     54 % 0 in /  0.0 mm
20:25 77.7 °F /  25.4 °C 59.7 °F /  15.4 °C 29.9 in /  1012.8 hPa SW 2.3 mph /  3.7 km/h 2.3 mph /  3.7 km/h 54 % 0 in /  0.0 mm
20:30 77.5 °F /  25.3 °C 59.5 °F /  15.3 °C 29.9 in /  1012.8 hPa SW 1.4 mph /  2.3 km/h 1.4 mph /  2.3 km/h 54 % 0 in /  0.0 mm
20:35 77.2 °F /  25.1 °C 59.2 °F /  15.1 °C 29.9 in /  1012.8 hPa WSW 2.3 mph /  3.7 km/h 2.3 mph /  3.7 km/h 54 % 0 in /  0.0 mm
20:40 77 °F /  25.0 °C 59.2 °F /  15.1 °C 29.9 in /  1012.8 hPa WSW 2 mph /  3.2 km/h 2 mph /  3.2 km/h 54 % 0 in /  0.0 mm
20:45 73.4 °F /  23.0 °C 55.2 °F /  12.9 °C 29.9 in /  1013.8 hPa WSW 2 mph /  3.2 km/h 3 mph /  4.8 km/h 53 % 0 in /  0.0 mm
20:50 76.8 °F /  24.9 °C 59.4 °F /  15.2 °C 29.9 in /  1012.8 hPa WSW 2.3 mph /  3.7 km/h 2.3 mph /  3.7 km/h 55 % 0 in /  0.0 mm
20:55 76.8 °F /  24.9 °C 59.4 °F /  15.2 °C 29.9 in /  1013.8 hPa SW 2.3 mph /  3.7 km/h 2.3 mph /  3.7 km/h 55 % 0 in /  0.0 mm
21:00 76.6 °F /  24.8 °C 59.4 °F /  15.2 °C 29.9 in /  1013.8 hPa SW 2.4 mph /  3.9 km/h 2.4 mph /  3.9 km/h 55 % 0 in /  0.0 mm
21:05 72.7 °F /  22.6 °C 55 °F /  12.8 °C 29.9 in /  1012.8 hPa WSW 1 mph /  1.6 km/h 2 mph /  3.2 km/h 54 % 0 in /  0.0 mm
21:10 76.3 °F /  24.6 °C 59.4 °F /  15.2 °C 29.9 in /  1013.8 hPa WSW 2.6 mph /  4.2 km/h 2.6 mph /  4.2 km/h 56 % 0 in /  0.0 mm
21:15 76.3 °F /  24.6 °C 59.4 °F /  15.2 °C 29.9 in /  1013.8 hPa SW 2.4 mph /  3.9 km/h 2.4 mph /  3.9 km/h 56 % 0 in /  0.0 mm
21:20 76.3 °F /  24.6 °C 59.4 °F /  15.2 °C 29.9 in /  1013.8 hPa SW 2.4 mph /  3.9 km/h 2.4 mph /  3.9 km/h 56 % 0 in /  0.0 mm
21:25 76.1 °F /  24.5 °C 59.4 °F /  15.2 °C 29.9 in /  1013.8 hPa SW 3.5 mph /  5.6 km/h 3.5 mph /  5.6 km/h 56 % 0 in /  0.0 mm
21:30 76.1 °F /  24.5 °C 59.4 °F /  15.2 °C 29.9 in /  1013.8 hPa West 2.3 mph /  3.7 km/h 2.3 mph /  3.7 km/h 56 % 0 in /  0.0 mm
21:35 76.1 °F /  24.5 °C 59.4 °F /  15.2 °C 29.9 in /  1013.8 hPa WSW 2.3 mph /  3.7 km/h 2.3 mph /  3.7 km/h 56 % 0 in /  0.0 mm
21:40 76.1 °F /  24.5 °C 58.8 °F /  14.9 °C 29.9 in /  1013.8 hPa WSW 2.6 mph /  4.2 km/h 2.6 mph /  4.2 km/h 55 % 0 in /  0.0 mm
21:45 76.1 °F /  24.5 °C 58.8 °F /  14.9 °C 29.9 in /  1013.8 hPa Calm     55 % 0 in /  0.0 mm
21:55 76.3 °F /  24.6 °C 58.5 °F /  14.7 °C 29.9 in /  1012.8 hPa SW 2.3 mph /  3.7 km/h 2.3 mph /  3.7 km/h 54 % 0 in /  0.0 mm
22:00 76.3 °F /  24.6 °C 58.5 °F /  14.7 °C 29.9 in /  1012.8 hPa WSW 2.6 mph /  4.2 km/h 2.6 mph /  4.2 km/h 54 % 0 in /  0.0 mm
22:05 76.5 °F /  24.7 °C 58.1 °F /  14.5 °C 29.9 in /  1012.8 hPa West 3.5 mph /  5.6 km/h 3.5 mph /  5.6 km/h 53 % 0 in /  0.0 mm
22:10 76.6 °F /  24.8 °C 58.3 °F /  14.6 °C 29.9 in /  1013.8 hPa West 2.9 mph /  4.7 km/h 2.9 mph /  4.7 km/h 53 % 0 in /  0.0 mm
22:15 76.5 °F /  24.7 °C 57.6 °F /  14.2 °C 29.9 in /  1013.8 hPa SW 3.1 mph /  5.0 km/h 3.1 mph /  5.0 km/h 52 % 0 in /  0.0 mm
22:20 76.3 °F /  24.6 °C 57.4 °F /  14.1 °C 29.9 in /  1013.8 hPa SW 3.5 mph /  5.6 km/h 3.5 mph /  5.6 km/h 52 % 0 in /  0.0 mm
22:25 76.1 °F /  24.5 °C 57.2 °F /  14.0 °C 29.9 in /  1013.8 hPa South 2.6 mph /  4.2 km/h 2.6 mph /  4.2 km/h 52 % 0 in /  0.0 mm
22:30 75.7 °F /  24.3 °C 57.4 °F /  14.1 °C 29.9 in /  1013.8 hPa West 4.6 mph /  7.4 km/h 4.6 mph /  7.4 km/h 53 % 0 in /  0.0 mm
22:35 75.6 °F /  24.2 °C 57.2 °F /  14.0 °C 29.9 in /  1013.8 hPa WSW 3.5 mph /  5.6 km/h 3.5 mph /  5.6 km/h 53 % 0 in /  0.0 mm
22:40 75.7 °F /  24.3 °C 57.4 °F /  14.1 °C 29.9 in /  1013.8 hPa SW 2.4 mph /  3.9 km/h 2.4 mph /  3.9 km/h 53 % 0 in /  0.0 mm
22:45 75.6 °F /  24.2 °C 57.2 °F /  14.0 °C 29.9 in /  1013.8 hPa SW 2.3 mph /  3.7 km/h 2.3 mph /  3.7 km/h 53 % 0 in /  0.0 mm
22:50 75.4 °F /  24.1 °C 57 °F /  13.9 °C 29.9 in /  1013.8 hPa SW 2.4 mph /  3.9 km/h 2.4 mph /  3.9 km/h 53 % 0 in /  0.0 mm
22:55 75.2 °F /  24.0 °C 56.8 °F /  13.8 °C 29.9 in /  1013.8 hPa SW 2.3 mph /  3.7 km/h 2.3 mph /  3.7 km/h 53 % 0 in /  0.0 mm
23:00 75 °F /  23.9 °C 56.7 °F /  13.7 °C 29.9 in /  1013.8 hPa WSW 1.4 mph /  2.3 km/h 1.4 mph /  2.3 km/h 53 % 0 in /  0.0 mm
23:01 75 °F /  23.9 °C 56.7 °F /  13.7 °C 29.9 in /  1013.8 hPa SW 2.3 mph /  3.7 km/h 2.3 mph /  3.7 km/h 53 % 0 in /  0.0 mm
23:05 71.4 °F /  21.9 °C 54 °F /  12.2 °C 29.9 in /  1013.8 hPa SW 3 mph /  4.8 km/h 4 mph /  6.4 km/h 54 % 0 in /  0.0 mm
23:06 75.4 °F /  24.1 °C 57 °F /  13.9 °C 29.9 in /  1013.8 hPa SW 3.5 mph /  5.6 km/h 3.5 mph /  5.6 km/h 53 % 0 in /  0.0 mm
23:11 74.8 °F /  23.8 °C 56.7 °F /  13.7 °C 29.9 in /  1013.8 hPa SW 2.3 mph /  3.7 km/h 2.3 mph /  3.7 km/h 53 % 0 in /  0.0 mm
23:15 72 °F /  22.2 °C 54 °F /  12.2 °C 30 in /  1014.8 hPa SW 3 mph /  4.8 km/h 5 mph /  8.0 km/h 53 % 0 in /  0.0 mm
23:16 74.5 °F /  23.6 °C 56.1 °F /  13.4 °C 29.9 in /  1013.8 hPa WSW 2.4 mph /  3.9 km/h 2.4 mph /  3.9 km/h 53 % 0 in /  0.0 mm
23:21 74.3 °F /  23.5 °C 56.1 °F /  13.4 °C 29.9 in /  1013.8 hPa WSW 1.2 mph /  1.9 km/h 1.2 mph /  1.9 km/h 53 % 0 in /  0.0 mm
23:25 73.4 °F /  23.0 °C 54.1 °F /  12.3 °C 30 in /  1014.8 hPa SW 6 mph /  9.7 km/h 10 mph /  16.1 km/h 51 % 0 in /  0.0 mm
23:26 74.3 °F /  23.5 °C 56.1 °F /  13.4 °C 29.9 in /  1013.8 hPa WSW 1.2 mph /  1.9 km/h   53 % 0 in /  0.0 mm
23:31 74.3 °F /  23.5 °C 55.6 °F /  13.1 °C 29.9 in /  1013.8 hPa Calm     52 % 0 in /  0.0 mm
23:35 72.9 °F /  22.7 °C 54.7 °F /  12.6 °C 30 in /  1015.8 hPa SW 8 mph /  12.9 km/h 17 mph /  27.4 km/h 53 % 0 in /  0.0 mm
23:36 74.5 °F /  23.6 °C 55.8 °F /  13.2 °C 29.9 in /  1013.8 hPa WSW 2.3 mph /  3.7 km/h 2.3 mph /  3.7 km/h 52 % 0 in /  0.0 mm
23:41 74.3 °F /  23.5 °C 56.1 °F /  13.4 °C 30 in /  1014.8 hPa SW 3.5 mph /  5.6 km/h 3.5 mph /  5.6 km/h 53 % 0 in /  0.0 mm
23:45 71.8 °F /  22.1 °C 55.2 °F /  12.9 °C 30 in /  1015.8 hPa SW 7 mph /  11.3 km/h 10 mph /  16.1 km/h 56 % 0 in /  0.0 mm
23:46 74.3 °F /  23.5 °C 56.1 °F /  13.4 °C 30 in /  1014.8 hPa SW 2.4 mph /  3.9 km/h 2.4 mph /  3.9 km/h 53 % 0 in /  0.0 mm
23:51 74.1 °F /  23.4 °C 55.9 °F /  13.3 °C 30 in /  1014.8 hPa SW 2.3 mph /  3.7 km/h 2.3 mph /  3.7 km/h 53 % 0 in /  0.0 mm
23:55 70 °F /  21.1 °C 56.8 °F /  13.8 °C 30 in /  1015.8 hPa WSW 3 mph /  4.8 km/h 8 mph /  12.9 km/h 63 % 0 in /  0.0 mm
23:56 73.9 °F /  23.3 °C 55.8 °F /  13.2 °C 29.9 in /  1013.8 hPa WSW 2.3 mph /  3.7 km/h 2.3 mph /  3.7 km/h 53 % 0 in /  0.0 mm
Meteo Sesrovires
Elogis d' Weather Underground - 3.5 mb

Guio original per  Jim McMurry - jmcmurry@mwt.net Adaptat per a la plantilla per  Wim van der Kuil - Leuven-Template.eu

Trobareu la nostra informacio del temps tambe a:

Weather Underground

AWEKAS